sensor_id;sensor_type;location;lat;lon;timestamp;P1;P2;P0
14880;PMS7003;7533;51.278;12.588;2022-11-20T00:03:42;15.00;14.00;9.50
14880;PMS7003;7533;51.278;12.588;2022-11-20T00:08:46;13.25;12.75;8.00
14880;PMS7003;7533;51.278;12.588;2022-11-20T00:13:50;11.50;11.50;9.00
14880;PMS7003;7533;51.278;12.588;2022-11-20T00:18:54;15.75;14.00;10.00
14880;PMS7003;7533;51.278;12.588;2022-11-20T00:23:58;16.25;15.00;10.75
14880;PMS7003;7533;51.278;12.588;2022-11-20T00:29:02;14.00;13.00;8.75
14880;PMS7003;7533;51.278;12.588;2022-11-20T00:34:05;13.00;12.50;8.75
14880;PMS7003;7533;51.278;12.588;2022-11-20T00:39:09;15.25;12.50;8.75
14880;PMS7003;7533;51.278;12.588;2022-11-20T00:44:12;13.00;12.25;8.75
14880;PMS7003;7533;51.278;12.588;2022-11-20T00:49:15;13.50;13.00;8.00
14880;PMS7003;7533;51.278;12.588;2022-11-20T00:54:19;14.25;12.50;8.75
14880;PMS7003;7533;51.278;12.588;2022-11-20T00:59:22;13.00;12.00;9.00
14880;PMS7003;7533;51.278;12.588;2022-11-20T01:04:25;14.00;12.75;9.00
14880;PMS7003;7533;51.278;12.588;2022-11-20T01:09:29;12.75;12.00;8.00
14880;PMS7003;7533;51.278;12.588;2022-11-20T01:14:31;13.75;12.50;8.50
14880;PMS7003;7533;51.278;12.588;2022-11-20T01:19:34;13.25;12.50;8.25
14880;PMS7003;7533;51.278;12.588;2022-11-20T01:24:38;12.00;12.00;8.00
14880;PMS7003;7533;51.278;12.588;2022-11-20T01:29:41;17.00;14.25;9.00
14880;PMS7003;7533;51.278;12.588;2022-11-20T01:34:44;11.50;11.00;8.00
14880;PMS7003;7533;51.278;12.588;2022-11-20T01:39:48;12.00;11.50;7.75
14880;PMS7003;7533;51.278;12.588;2022-11-20T01:44:53;13.50;12.00;7.50
14880;PMS7003;7533;51.278;12.588;2022-11-20T01:49:59;12.25;11.75;8.00
14880;PMS7003;7533;51.278;12.588;2022-11-20T01:55:07;13.00;12.00;8.00
14880;PMS7003;7533;51.278;12.588;2022-11-20T02:00:14;12.75;12.75;8.75
14880;PMS7003;7533;51.278;12.588;2022-11-20T02:05:19;11.25;10.00;7.25
14880;PMS7003;7533;51.278;12.588;2022-11-20T02:10:29;11.00;10.50;6.75
14880;PMS7003;7533;51.278;12.588;2022-11-20T02:15:32;13.00;13.00;8.50
14880;PMS7003;7533;51.278;12.588;2022-11-20T02:20:36;13.25;12.25;7.75
14880;PMS7003;7533;51.278;12.588;2022-11-20T02:25:40;10.50;10.50;7.00
14880;PMS7003;7533;51.278;12.588;2022-11-20T02:30:45;8.75;8.00;6.25
14880;PMS7003;7533;51.278;12.588;2022-11-20T02:35:48;11.75;10.50;7.00
14880;PMS7003;7533;51.278;12.588;2022-11-20T02:40:52;12.00;10.50;7.75
14880;PMS7003;7533;51.278;12.588;2022-11-20T02:45:56;11.75;11.75;8.25
14880;PMS7003;7533;51.278;12.588;2022-11-20T02:50:59;10.50;10.50;7.00
14880;PMS7003;7533;51.278;12.588;2022-11-20T02:56:03;13.00;12.00;8.00
14880;PMS7003;7533;51.278;12.588;2022-11-20T03:01:06;13.50;11.25;7.00
14880;PMS7003;7533;51.278;12.588;2022-11-20T03:06:09;12.00;11.75;8.50
14880;PMS7003;7533;51.278;12.588;2022-11-20T03:11:14;8.75;8.75;6.00
14880;PMS7003;7533;51.278;12.588;2022-11-20T03:16:17;12.75;10.00;6.50
14880;PMS7003;7533;51.278;12.588;2022-11-20T03:21:22;13.25;10.25;6.00
14880;PMS7003;7533;51.278;12.588;2022-11-20T03:26:26;10.50;10.00;7.50
14880;PMS7003;7533;51.278;12.588;2022-11-20T03:31:30;11.50;11.50;8.00
14880;PMS7003;7533;51.278;12.588;2022-11-20T03:36:33;13.50;12.00;7.25
14880;PMS7003;7533;51.278;12.588;2022-11-20T03:41:39;9.75;8.50;5.25
14880;PMS7003;7533;51.278;12.588;2022-11-20T03:46:43;9.50;9.25;6.00
14880;PMS7003;7533;51.278;12.588;2022-11-20T03:51:46;10.00;10.00;6.00
14880;PMS7003;7533;51.278;12.588;2022-11-20T03:56:50;9.00;8.50;6.25
14880;PMS7003;7533;51.278;12.588;2022-11-20T04:01:53;10.75;8.75;6.50
14880;PMS7003;7533;51.278;12.588;2022-11-20T04:06:55;11.00;9.50;6.00
14880;PMS7003;7533;51.278;12.588;2022-11-20T04:12:00;9.25;9.25;6.50
14880;PMS7003;7533;51.278;12.588;2022-11-20T04:17:03;11.50;11.50;7.25
14880;PMS7003;7533;51.278;12.588;2022-11-20T04:22:05;14.25;11.25;6.50
14880;PMS7003;7533;51.278;12.588;2022-11-20T04:27:10;10.25;8.50;6.00
14880;PMS7003;7533;51.278;12.588;2022-11-20T04:32:12;10.00;9.75;6.00
14880;PMS7003;7533;51.278;12.588;2022-11-20T04:37:15;12.75;9.25;6.25
14880;PMS7003;7533;51.278;12.588;2022-11-20T04:42:19;8.50;8.00;6.00
14880;PMS7003;7533;51.278;12.588;2022-11-20T04:47:31;9.75;9.75;6.00
14880;PMS7003;7533;51.278;12.588;2022-11-20T04:52:33;8.50;8.50;5.75
14880;PMS7003;7533;51.278;12.588;2022-11-20T04:57:38;9.25;7.75;5.50
14880;PMS7003;7533;51.278;12.588;2022-11-20T05:02:40;12.25;9.75;6.75
14880;PMS7003;7533;51.278;12.588;2022-11-20T05:07:43;10.75;9.50;5.25
14880;PMS7003;7533;51.278;12.588;2022-11-20T05:12:47;11.75;10.00;6.00
14880;PMS7003;7533;51.278;12.588;2022-11-20T05:17:50;10.00;9.00;5.00
14880;PMS7003;7533;51.278;12.588;2022-11-20T05:22:56;10.00;9.00;6.25
14880;PMS7003;7533;51.278;12.588;2022-11-20T05:28:00;10.25;8.25;6.00
14880;PMS7003;7533;51.278;12.588;2022-11-20T05:33:03;9.50;9.50;5.75
14880;PMS7003;7533;51.278;12.588;2022-11-20T05:38:05;8.75;8.75;6.00
14880;PMS7003;7533;51.278;12.588;2022-11-20T05:43:10;9.75;7.75;5.25
14880;PMS7003;7533;51.278;12.588;2022-11-20T05:48:12;9.50;8.00;5.50
14880;PMS7003;7533;51.278;12.588;2022-11-20T05:53:15;7.75;6.75;5.50
14880;PMS7003;7533;51.278;12.588;2022-11-20T05:58:19;8.75;8.75;6.50
14880;PMS7003;7533;51.278;12.588;2022-11-20T06:03:22;10.25;9.50;6.25
14880;PMS7003;7533;51.278;12.588;2022-11-20T06:08:25;10.00;7.00;5.50
14880;PMS7003;7533;51.278;12.588;2022-11-20T06:13:29;8.75;8.00;6.00
14880;PMS7003;7533;51.278;12.588;2022-11-20T06:18:31;11.25;10.50;7.00
14880;PMS7003;7533;51.278;12.588;2022-11-20T06:23:34;9.00;8.50;6.00
14880;PMS7003;7533;51.278;12.588;2022-11-20T06:28:40;9.75;9.75;5.50
14880;PMS7003;7533;51.278;12.588;2022-11-20T06:33:43;8.50;8.00;5.00
14880;PMS7003;7533;51.278;12.588;2022-11-20T06:38:47;7.75;7.75;6.00
14880;PMS7003;7533;51.278;12.588;2022-11-20T06:43:51;8.75;7.25;5.00
14880;PMS7003;7533;51.278;12.588;2022-11-20T06:48:54;8.50;8.50;6.00
14880;PMS7003;7533;51.278;12.588;2022-11-20T06:53:57;11.25;9.25;5.25
14880;PMS7003;7533;51.278;12.588;2022-11-20T06:59:04;10.50;10.00;5.50
14880;PMS7003;7533;51.278;12.588;2022-11-20T07:04:08;10.00;10.00;7.00
14880;PMS7003;7533;51.278;12.588;2022-11-20T07:09:10;14.00;11.50;6.75
14880;PMS7003;7533;51.278;12.588;2022-11-20T07:14:15;9.00;8.50;5.75
14880;PMS7003;7533;51.278;12.588;2022-11-20T07:19:17;8.00;7.50;5.25
14880;PMS7003;7533;51.278;12.588;2022-11-20T07:24:21;10.75;9.75;6.00
14880;PMS7003;7533;51.278;12.588;2022-11-20T07:29:25;10.25;8.75;6.00
14880;PMS7003;7533;51.278;12.588;2022-11-20T07:34:28;9.00;9.00;5.00
14880;PMS7003;7533;51.278;12.588;2022-11-20T07:39:30;8.00;7.25;5.75
14880;PMS7003;7533;51.278;12.588;2022-11-20T07:44:35;10.75;10.00;6.50
14880;PMS7003;7533;51.278;12.588;2022-11-20T07:49:37;7.00;7.00;5.00
14880;PMS7003;7533;51.278;12.588;2022-11-20T07:54:40;8.50;8.50;6.25
14880;PMS7003;7533;51.278;12.588;2022-11-20T07:59:44;9.50;9.00;6.00
14880;PMS7003;7533;51.278;12.588;2022-11-20T08:04:47;6.25;6.25;4.50
14880;PMS7003;7533;51.278;12.588;2022-11-20T08:09:50;10.25;9.00;5.00
14880;PMS7003;7533;51.278;12.588;2022-11-20T08:14:54;9.00;9.00;6.00
14880;PMS7003;7533;51.278;12.588;2022-11-20T08:20:00;9.00;7.25;5.00
14880;PMS7003;7533;51.278;12.588;2022-11-20T08:25:03;11.00;8.75;5.00
14880;PMS7003;7533;51.278;12.588;2022-11-20T08:30:08;11.50;9.75;5.25
14880;PMS7003;7533;51.278;12.588;2022-11-20T08:35:12;11.00;11.00;6.00
14880;PMS7003;7533;51.278;12.588;2022-11-20T08:40:15;8.50;8.50;5.50
14880;PMS7003;7533;51.278;12.588;2022-11-20T08:45:21;27.25;25.50;16.00
14880;PMS7003;7533;51.278;12.588;2022-11-20T08:50:24;33.50;28.50;17.00
14880;PMS7003;7533;51.278;12.588;2022-11-20T08:55:27;34.00;30.00;18.00
14880;PMS7003;7533;51.278;12.588;2022-11-20T09:00:31;26.25;24.25;14.50
14880;PMS7003;7533;51.278;12.588;2022-11-20T09:05:34;27.75;23.75;14.50
14880;PMS7003;7533;51.278;12.588;2022-11-20T09:10:37;24.50;21.50;13.00
14880;PMS7003;7533;51.278;12.588;2022-11-20T09:15:42;21.50;20.25;13.25
14880;PMS7003;7533;51.278;12.588;2022-11-20T09:20:45;21.75;19.50;11.75
14880;PMS7003;7533;51.278;12.588;2022-11-20T09:25:47;20.25;19.00;10.00
14880;PMS7003;7533;51.278;12.588;2022-11-20T09:30:52;21.75;20.00;12.00
14880;PMS7003;7533;51.278;12.588;2022-11-20T09:35:54;18.00;16.00;10.75
14880;PMS7003;7533;51.278;12.588;2022-11-20T09:40:58;17.50;17.25;10.50
14880;PMS7003;7533;51.278;12.588;2022-11-20T09:46:07;17.50;15.25;10.00
14880;PMS7003;7533;51.278;12.588;2022-11-20T09:51:20;19.75;15.00;10.25
14880;PMS7003;7533;51.278;12.588;2022-11-20T09:56:33;19.00;15.75;11.00
14880;PMS7003;7533;51.278;12.588;2022-11-20T10:01:41;17.75;16.50;9.50
14880;PMS7003;7533;51.278;12.588;2022-11-20T10:06:47;18.25;15.75;10.00
14880;PMS7003;7533;51.278;12.588;2022-11-20T10:12:19;14.50;13.50;7.75
14880;PMS7003;7533;51.278;12.588;2022-11-20T10:17:46;18.75;16.50;9.00
14880;PMS7003;7533;51.278;12.588;2022-11-20T10:23:06;16.00;15.75;10.00
14880;PMS7003;7533;51.278;12.588;2022-11-20T10:28:35;13.50;13.00;10.25
14880;PMS7003;7533;51.278;12.588;2022-11-20T10:34:00;15.50;13.00;8.25
14880;PMS7003;7533;51.278;12.588;2022-11-20T10:39:15;15.00;14.25;9.50
14880;PMS7003;7533;51.278;12.588;2022-11-20T10:44:26;15.25;12.75;8.00
14880;PMS7003;7533;51.278;12.588;2022-11-20T10:49:50;13.50;13.00;8.75
14880;PMS7003;7533;51.278;12.588;2022-11-20T10:54:56;13.50;11.50;7.75
14880;PMS7003;7533;51.278;12.588;2022-11-20T11:00:06;14.50;13.00;8.50
14880;PMS7003;7533;51.278;12.588;2022-11-20T11:05:29;14.00;13.75;10.00
14880;PMS7003;7533;51.278;12.588;2022-11-20T11:10:39;11.00;10.50;8.00
14880;PMS7003;7533;51.278;12.588;2022-11-20T11:15:48;13.75;12.75;8.75
14880;PMS7003;7533;51.278;12.588;2022-11-20T11:20:54;11.75;10.25;6.00
14880;PMS7003;7533;51.278;12.588;2022-11-20T11:25:57;12.75;10.75;7.00
14880;PMS7003;7533;51.278;12.588;2022-11-20T11:31:01;12.75;11.00;7.00
14880;PMS7003;7533;51.278;12.588;2022-11-20T11:36:15;10.25;10.25;6.25
14880;PMS7003;7533;51.278;12.588;2022-11-20T11:41:22;13.00;11.00;7.25
14880;PMS7003;7533;51.278;12.588;2022-11-20T11:46:29;12.25;11.00;6.75
14880;PMS7003;7533;51.278;12.588;2022-11-20T11:51:36;13.50;11.75;7.75
14880;PMS7003;7533;51.278;12.588;2022-11-20T11:56:48;12.75;10.75;7.25
14880;PMS7003;7533;51.278;12.588;2022-11-20T12:01:52;23.50;21.25;13.75
14880;PMS7003;7533;51.278;12.588;2022-11-20T12:07:03;29.50;27.50;15.50
14880;PMS7003;7533;51.278;12.588;2022-11-20T12:12:35;24.00;23.00;15.00
14880;PMS7003;7533;51.278;12.588;2022-11-20T12:17:42;25.75;22.00;13.00
14880;PMS7003;7533;51.278;12.588;2022-11-20T12:22:48;27.00;23.25;14.00
14880;PMS7003;7533;51.278;12.588;2022-11-20T12:28:08;23.50;19.75;13.00
14880;PMS7003;7533;51.278;12.588;2022-11-20T12:33:35;25.00;21.50;14.25
14880;PMS7003;7533;51.278;12.588;2022-11-20T12:39:00;22.75;20.75;12.00
14880;PMS7003;7533;51.278;12.588;2022-11-20T12:44:14;23.50;22.50;12.00
14880;PMS7003;7533;51.278;12.588;2022-11-20T12:49:47;24.25;20.00;11.50
14880;PMS7003;7533;51.278;12.588;2022-11-20T12:55:11;18.50;17.75;12.50
14880;PMS7003;7533;51.278;12.588;2022-11-20T13:00:19;17.50;15.50;10.50
14880;PMS7003;7533;51.278;12.588;2022-11-20T13:05:24;19.75;15.50;10.00
14880;PMS7003;7533;51.278;12.588;2022-11-20T13:10:35;21.50;17.75;9.50
14880;PMS7003;7533;51.278;12.588;2022-11-20T13:15:47;18.50;15.75;10.00
14880;PMS7003;7533;51.278;12.588;2022-11-20T13:20:57;17.75;16.00;8.50
14880;PMS7003;7533;51.278;12.588;2022-11-20T13:26:05;16.25;15.25;9.75
14880;PMS7003;7533;51.278;12.588;2022-11-20T13:31:25;17.50;14.50;9.00
14880;PMS7003;7533;51.278;12.588;2022-11-20T13:36:32;16.50;16.00;9.50
14880;PMS7003;7533;51.278;12.588;2022-11-20T13:41:39;16.25;14.75;8.00
14880;PMS7003;7533;51.278;12.588;2022-11-20T13:46:43;12.50;12.00;6.25
14880;PMS7003;7533;51.278;12.588;2022-11-20T13:51:47;15.75;12.50;7.00
14880;PMS7003;7533;51.278;12.588;2022-11-20T13:56:57;11.25;10.25;6.00
14880;PMS7003;7533;51.278;12.588;2022-11-20T14:02:09;12.75;10.50;6.50
14880;PMS7003;7533;51.278;12.588;2022-11-20T14:07:15;12.75;10.50;7.00
14880;PMS7003;7533;51.278;12.588;2022-11-20T14:12:22;14.25;12.25;7.25
14880;PMS7003;7533;51.278;12.588;2022-11-20T14:17:30;11.50;8.50;5.75
14880;PMS7003;7533;51.278;12.588;2022-11-20T14:22:34;11.25;9.75;6.00
14880;PMS7003;7533;51.278;12.588;2022-11-20T14:27:40;12.25;10.00;5.50
14880;PMS7003;7533;51.278;12.588;2022-11-20T14:32:45;11.50;10.50;6.50
14880;PMS7003;7533;51.278;12.588;2022-11-20T14:37:50;11.75;10.25;6.00
14880;PMS7003;7533;51.278;12.588;2022-11-20T14:42:55;11.00;10.25;6.25
14880;PMS7003;7533;51.278;12.588;2022-11-20T14:47:58;13.00;9.75;5.25
14880;PMS7003;7533;51.278;12.588;2022-11-20T14:53:02;9.25;8.00;4.75
14880;PMS7003;7533;51.278;12.588;2022-11-20T14:58:06;12.00;8.00;5.00
14880;PMS7003;7533;51.278;12.588;2022-11-20T15:03:30;10.00;9.00;5.75
14880;PMS7003;7533;51.278;12.588;2022-11-20T15:08:34;8.00;7.25;4.00
14880;PMS7003;7533;51.278;12.588;2022-11-20T15:13:38;11.25;9.00;5.25
14880;PMS7003;7533;51.278;12.588;2022-11-20T15:18:41;7.25;7.25;5.00
14880;PMS7003;7533;51.278;12.588;2022-11-20T15:23:44;7.50;7.50;5.50
14880;PMS7003;7533;51.278;12.588;2022-11-20T15:28:48;11.00;9.50;6.50
14880;PMS7003;7533;51.278;12.588;2022-11-20T15:33:51;8.25;7.00;4.25
14880;PMS7003;7533;51.278;12.588;2022-11-20T15:38:54;7.25;5.75;3.50
14880;PMS7003;7533;51.278;12.588;2022-11-20T15:43:58;11.75;8.00;4.50
14880;PMS7003;7533;51.278;12.588;2022-11-20T15:49:01;9.50;8.00;5.00
14880;PMS7003;7533;51.278;12.588;2022-11-20T15:54:08;9.50;8.00;5.00
14880;PMS7003;7533;51.278;12.588;2022-11-20T15:59:14;7.25;7.00;4.50
14880;PMS7003;7533;51.278;12.588;2022-11-20T16:04:17;9.75;7.50;5.00
14880;PMS7003;7533;51.278;12.588;2022-11-20T16:09:21;5.75;4.75;3.00
14880;PMS7003;7533;51.278;12.588;2022-11-20T16:14:25;9.00;7.00;4.00
14880;PMS7003;7533;51.278;12.588;2022-11-20T16:19:45;6.75;6.25;4.00
14880;PMS7003;7533;51.278;12.588;2022-11-20T16:24:48;8.50;6.75;4.50
14880;PMS7003;7533;51.278;12.588;2022-11-20T16:29:53;7.25;5.75;3.75
14880;PMS7003;7533;51.278;12.588;2022-11-20T16:34:56;6.25;6.25;3.75
14880;PMS7003;7533;51.278;12.588;2022-11-20T16:39:59;7.50;6.75;3.00
14880;PMS7003;7533;51.278;12.588;2022-11-20T16:45:03;5.00;4.50;3.50
14880;PMS7003;7533;51.278;12.588;2022-11-20T16:50:07;7.25;5.00;3.25
14880;PMS7003;7533;51.278;12.588;2022-11-20T16:55:10;7.00;7.00;4.25
14880;PMS7003;7533;51.278;12.588;2022-11-20T17:00:15;6.00;5.50;3.25
14880;PMS7003;7533;51.278;12.588;2022-11-20T17:05:18;6.25;5.50;3.75
14880;PMS7003;7533;51.278;12.588;2022-11-20T17:10:21;5.50;5.00;3.00
14880;PMS7003;7533;51.278;12.588;2022-11-20T17:15:25;7.00;7.00;3.25
14880;PMS7003;7533;51.278;12.588;2022-11-20T17:20:28;6.75;6.00;3.50
14880;PMS7003;7533;51.278;12.588;2022-11-20T17:25:33;4.50;4.00;2.50
14880;PMS7003;7533;51.278;12.588;2022-11-20T17:30:37;8.00;7.25;5.00
14880;PMS7003;7533;51.278;12.588;2022-11-20T17:35:40;5.25;5.25;4.00
14880;PMS7003;7533;51.278;12.588;2022-11-20T17:40:42;10.50;9.75;5.00
14880;PMS7003;7533;51.278;12.588;2022-11-20T17:45:47;6.25;6.25;3.25
14880;PMS7003;7533;51.278;12.588;2022-11-20T17:50:50;10.00;7.00;4.00
14880;PMS7003;7533;51.278;12.588;2022-11-20T17:55:54;9.00;8.50;6.00
14880;PMS7003;7533;51.278;12.588;2022-11-20T18:01:16;12.25;10.25;6.00
14880;PMS7003;7533;51.278;12.588;2022-11-20T18:06:20;8.75;8.25;6.00
14880;PMS7003;7533;51.278;12.588;2022-11-20T18:11:24;12.50;12.25;7.00
14880;PMS7003;7533;51.278;12.588;2022-11-20T18:16:31;14.00;11.50;6.75
14880;PMS7003;7533;51.278;12.588;2022-11-20T18:21:35;15.25;12.00;8.00
14880;PMS7003;7533;51.278;12.588;2022-11-20T18:26:39;13.50;13.00;10.00
14880;PMS7003;7533;51.278;12.588;2022-11-20T18:31:46;18.00;17.50;12.00
14880;PMS7003;7533;51.278;12.588;2022-11-20T18:36:49;18.75;17.00;13.25
14880;PMS7003;7533;51.278;12.588;2022-11-20T18:41:52;20.75;18.50;15.00
14880;PMS7003;7533;51.278;12.588;2022-11-20T18:47:14;21.75;19.75;15.50
14880;PMS7003;7533;51.278;12.588;2022-11-20T18:52:19;21.50;21.50;17.25
14880;PMS7003;7533;51.278;12.588;2022-11-20T18:57:24;21.00;20.00;16.25
14880;PMS7003;7533;51.278;12.588;2022-11-20T19:02:30;23.00;22.00;17.00
14880;PMS7003;7533;51.278;12.588;2022-11-20T19:07:41;24.00;24.00;18.25
14880;PMS7003;7533;51.278;12.588;2022-11-20T19:12:44;27.20;24.20;19.00
14880;PMS7003;7533;51.278;12.588;2022-11-20T19:17:48;26.20;25.00;19.00
14880;PMS7003;7533;51.278;12.588;2022-11-20T19:22:52;26.60;25.80;19.00
14880;PMS7003;7533;51.278;12.588;2022-11-20T19:27:55;27.40;25.20;19.60
14880;PMS7003;7533;51.278;12.588;2022-11-20T19:32:59;26.25;24.25;18.25
14880;PMS7003;7533;51.278;12.588;2022-11-20T19:38:02;28.60;26.20;20.80
14880;PMS7003;7533;51.278;12.588;2022-11-20T19:43:06;30.00;28.00;20.20
14880;PMS7003;7533;51.278;12.588;2022-11-20T19:48:10;28.20;27.40;20.60
14880;PMS7003;7533;51.278;12.588;2022-11-20T19:53:13;29.40;27.40;20.20
14880;PMS7003;7533;51.278;12.588;2022-11-20T19:58:16;27.40;26.40;19.80
14880;PMS7003;7533;51.278;12.588;2022-11-20T20:03:20;28.40;27.40;21.00
14880;PMS7003;7533;51.278;12.588;2022-11-20T20:08:23;26.80;25.60;20.00
14880;PMS7003;7533;51.278;12.588;2022-11-20T20:13:26;28.80;27.60;20.20
14880;PMS7003;7533;51.278;12.588;2022-11-20T20:18:30;28.80;27.60;20.60
14880;PMS7003;7533;51.278;12.588;2022-11-20T20:23:33;26.00;25.00;20.00
14880;PMS7003;7533;51.278;12.588;2022-11-20T20:28:36;30.00;27.80;20.80
14880;PMS7003;7533;51.278;12.588;2022-11-20T20:33:42;28.00;25.00;19.20
14880;PMS7003;7533;51.278;12.588;2022-11-20T20:38:45;28.20;27.40;20.00
14880;PMS7003;7533;51.278;12.588;2022-11-20T20:43:48;27.60;26.40;19.00
14880;PMS7003;7533;51.278;12.588;2022-11-20T20:49:10;25.60;23.00;18.20
14880;PMS7003;7533;51.278;12.588;2022-11-20T20:54:14;24.80;24.80;19.00
14880;PMS7003;7533;51.278;12.588;2022-11-20T20:59:17;27.80;25.00;18.60
14880;PMS7003;7533;51.278;12.588;2022-11-20T21:04:21;26.60;24.20;18.60
14880;PMS7003;7533;51.278;12.588;2022-11-20T21:09:24;22.75;22.00;18.50
14880;PMS7003;7533;51.278;12.588;2022-11-20T21:14:27;28.00;25.60;19.00
14880;PMS7003;7533;51.278;12.588;2022-11-20T21:19:31;22.25;21.75;17.50
14880;PMS7003;7533;51.278;12.588;2022-11-20T21:24:34;24.00;23.00;17.80
14880;PMS7003;7533;51.278;12.588;2022-11-20T21:29:38;26.80;26.40;19.40
14880;PMS7003;7533;51.278;12.588;2022-11-20T21:34:42;22.25;21.00;17.50
14880;PMS7003;7533;51.278;12.588;2022-11-20T21:39:45;27.40;24.00;18.40
14880;PMS7003;7533;51.278;12.588;2022-11-20T21:44:52;23.00;22.25;17.75
14880;PMS7003;7533;51.278;12.588;2022-11-20T21:49:56;25.50;23.75;17.75
14880;PMS7003;7533;51.278;12.588;2022-11-20T21:54:59;22.00;22.00;16.75
14880;PMS7003;7533;51.278;12.588;2022-11-20T22:00:02;22.75;21.50;17.00
14880;PMS7003;7533;51.278;12.588;2022-11-20T22:05:11;22.50;22.00;17.50
14880;PMS7003;7533;51.278;12.588;2022-11-20T22:10:14;22.25;19.50;15.25
14880;PMS7003;7533;51.278;12.588;2022-11-20T22:15:19;21.75;20.50;16.75
14880;PMS7003;7533;51.278;12.588;2022-11-20T22:20:43;25.75;23.50;17.50
14880;PMS7003;7533;51.278;12.588;2022-11-20T22:25:46;20.75;20.25;17.00
14880;PMS7003;7533;51.278;12.588;2022-11-20T22:30:48;19.75;19.50;16.25
14880;PMS7003;7533;51.278;12.588;2022-11-20T22:35:53;19.00;18.25;15.00
14880;PMS7003;7533;51.278;12.588;2022-11-20T22:41:01;22.00;21.50;16.25
14880;PMS7003;7533;51.278;12.588;2022-11-20T22:46:05;20.25;20.25;15.75
14880;PMS7003;7533;51.278;12.588;2022-11-20T22:51:12;19.00;17.75;14.00
14880;PMS7003;7533;51.278;12.588;2022-11-20T22:56:16;18.25;17.00;13.75
14880;PMS7003;7533;51.278;12.588;2022-11-20T23:01:20;19.50;19.00;16.00
14880;PMS7003;7533;51.278;12.588;2022-11-20T23:06:25;20.75;19.75;15.00
14880;PMS7003;7533;51.278;12.588;2022-11-20T23:11:28;21.75;20.75;15.75
14880;PMS7003;7533;51.278;12.588;2022-11-20T23:16:33;20.25;19.00;15.50
14880;PMS7003;7533;51.278;12.588;2022-11-20T23:21:38;17.25;17.00;13.75
14880;PMS7003;7533;51.278;12.588;2022-11-20T23:26:42;20.25;18.25;15.00
14880;PMS7003;7533;51.278;12.588;2022-11-20T23:31:47;18.25;17.75;14.50
14880;PMS7003;7533;51.278;12.588;2022-11-20T23:36:51;17.50;17.50;14.25
14880;PMS7003;7533;51.278;12.588;2022-11-20T23:41:54;16.50;15.75;13.50
14880;PMS7003;7533;51.278;12.588;2022-11-20T23:46:56;17.50;17.50;14.25
14880;PMS7003;7533;51.278;12.588;2022-11-20T23:52:01;19.00;18.00;14.00
14880;PMS7003;7533;51.278;12.588;2022-11-20T23:57:04;16.75;16.75;13.00
